sensor_id;sensor_type;location;lat;lon;timestamp;temperature;humidity
75705;DHT22;70013;44.726;37.760;2023-06-22T00:00:35;24.68;56.42
75705;DHT22;70013;44.726;37.760;2023-06-22T00:01:36;24.66;56.84
75705;DHT22;70013;44.726;37.760;2023-06-22T00:02:37;24.51;57.90
75705;DHT22;70013;44.726;37.760;2023-06-22T00:03:39;24.48;56.61
75705;DHT22;70013;44.726;37.760;2023-06-22T00:04:40;24.51;56.81
75705;DHT22;70013;44.726;37.760;2023-06-22T00:05:41;24.54;56.61
75705;DHT22;70013;44.726;37.760;2023-06-22T00:06:42;24.58;56.06
75705;DHT22;70013;44.726;37.760;2023-06-22T00:07:43;24.58;56.71
75705;DHT22;70013;44.726;37.760;2023-06-22T00:08:45;24.59;56.69
75705;DHT22;70013;44.726;37.760;2023-06-22T00:09:46;24.58;56.63
75705;DHT22;70013;44.726;37.760;2023-06-22T00:10:47;24.60;56.46
75705;DHT22;70013;44.726;37.760;2023-06-22T00:11:48;24.60;56.81
75705;DHT22;70013;44.726;37.760;2023-06-22T00:12:52;24.61;56.29
75705;DHT22;70013;44.726;37.760;2023-06-22T00:13:53;24.61;56.71
75705;DHT22;70013;44.726;37.760;2023-06-22T00:14:54;24.63;56.41
75705;DHT22;70013;44.726;37.760;2023-06-22T00:15:56;24.63;56.42
75705;DHT22;70013;44.726;37.760;2023-06-22T00:16:57;24.56;57.20
75705;DHT22;70013;44.726;37.760;2023-06-22T00:18:00;24.55;56.51
75705;DHT22;70013;44.726;37.760;2023-06-22T00:19:01;24.55;57.06
75705;DHT22;70013;44.726;37.760;2023-06-22T00:20:03;24.56;56.82
75705;DHT22;70013;44.726;37.760;2023-06-22T00:21:07;24.56;56.66
75705;DHT22;70013;44.726;37.760;2023-06-22T00:22:09;24.57;56.71
75705;DHT22;70013;44.726;37.760;2023-06-22T00:23:10;24.57;56.88
75705;DHT22;70013;44.726;37.760;2023-06-22T00:24:11;24.51;57.38
75705;DHT22;70013;44.726;37.760;2023-06-22T00:25:12;24.50;56.93
75705;DHT22;70013;44.726;37.760;2023-06-22T00:26:13;24.49;56.97
75705;DHT22;70013;44.726;37.760;2023-06-22T00:27:15;24.48;56.71
75705;DHT22;70013;44.726;37.760;2023-06-22T00:28:16;24.46;56.75
75705;DHT22;70013;44.726;37.760;2023-06-22T00:29:17;24.47;56.36
75705;DHT22;70013;44.726;37.760;2023-06-22T00:30:19;24.48;56.61
75705;DHT22;70013;44.726;37.760;2023-06-22T00:31:20;24.47;57.23
75705;DHT22;70013;44.726;37.760;2023-06-22T00:32:21;24.44;57.11
75705;DHT22;70013;44.726;37.760;2023-06-22T00:33:23;24.42;56.97
75705;DHT22;70013;44.726;37.760;2023-06-22T00:34:24;24.43;56.68
75705;DHT22;70013;44.726;37.760;2023-06-22T00:35:26;24.46;56.49
75705;DHT22;70013;44.726;37.760;2023-06-22T00:36:30;24.46;56.71
75705;DHT22;70013;44.726;37.760;2023-06-22T00:37:31;24.44;56.81
75705;DHT22;70013;44.726;37.760;2023-06-22T00:38:34;24.44;56.35
75705;DHT22;70013;44.726;37.760;2023-06-22T00:39:36;24.45;56.52
75705;DHT22;70013;44.726;37.760;2023-06-22T00:40:37;24.44;56.32
75705;DHT22;70013;44.726;37.760;2023-06-22T00:41:39;24.45;56.57
75705;DHT22;70013;44.726;37.760;2023-06-22T00:42:40;24.44;56.55
75705;DHT22;70013;44.726;37.760;2023-06-22T00:43:42;24.45;57.00
75705;DHT22;70013;44.726;37.760;2023-06-22T00:44:44;24.43;56.93
75705;DHT22;70013;44.726;37.760;2023-06-22T00:45:45;24.44;56.33
75705;DHT22;70013;44.726;37.760;2023-06-22T00:46:47;24.45;56.81
75705;DHT22;70013;44.726;37.760;2023-06-22T00:47:49;24.45;56.77
75705;DHT22;70013;44.726;37.760;2023-06-22T00:48:50;24.44;56.26
75705;DHT22;70013;44.726;37.760;2023-06-22T00:49:52;24.45;56.50
75705;DHT22;70013;44.726;37.760;2023-06-22T00:50:53;24.42;57.01
75705;DHT22;70013;44.726;37.760;2023-06-22T00:51:58;24.44;56.68
75705;DHT22;70013;44.726;37.760;2023-06-22T00:53:03;24.44;57.12
75705;DHT22;70013;44.726;37.760;2023-06-22T00:54:09;24.43;56.48
75705;DHT22;70013;44.726;37.760;2023-06-22T00:55:10;24.41;56.91
75705;DHT22;70013;44.726;37.760;2023-06-22T00:56:11;24.38;56.32
75705;DHT22;70013;44.726;37.760;2023-06-22T00:57:13;24.34;56.45
75705;DHT22;70013;44.726;37.760;2023-06-22T00:58:16;24.39;56.32
75705;DHT22;70013;44.726;37.760;2023-06-22T00:59:18;24.36;56.06
75705;DHT22;70013;44.726;37.760;2023-06-22T01:00:19;24.39;56.29
75705;DHT22;70013;44.726;37.760;2023-06-22T01:01:21;24.38;55.95
75705;DHT22;70013;44.726;37.760;2023-06-22T01:02:24;24.38;56.10
75705;DHT22;70013;44.726;37.760;2023-06-22T01:03:26;24.39;55.81
75705;DHT22;70013;44.726;37.760;2023-06-22T01:04:33;24.40;55.90
75705;DHT22;70013;44.726;37.760;2023-06-22T01:05:35;24.39;55.93
75705;DHT22;70013;44.726;37.760;2023-06-22T01:06:38;24.40;55.84
75705;DHT22;70013;44.726;37.760;2023-06-22T01:07:43;24.40;55.92
75705;DHT22;70013;44.726;37.760;2023-06-22T01:08:49;24.39;55.84
75705;DHT22;70013;44.726;37.760;2023-06-22T01:12:01;24.43;56.19
75705;DHT22;70013;44.726;37.760;2023-06-22T01:13:07;24.41;56.17
75705;DHT22;70013;44.726;37.760;2023-06-22T01:14:14;24.42;56.12
75705;DHT22;70013;44.726;37.760;2023-06-22T01:15:24;24.41;56.23
75705;DHT22;70013;44.726;37.760;2023-06-22T01:16:33;24.39;56.59
75705;DHT22;70013;44.726;37.760;2023-06-22T01:17:35;24.39;56.54
75705;DHT22;70013;44.726;37.760;2023-06-22T01:18:37;24.39;56.61
75705;DHT22;70013;44.726;37.760;2023-06-22T01:19:50;24.41;56.59
75705;DHT22;70013;44.726;37.760;2023-06-22T01:20:56;24.41;56.48
75705;DHT22;70013;44.726;37.760;2023-06-22T01:21:58;24.40;56.59
75705;DHT22;70013;44.726;37.760;2023-06-22T01:23:47;24.40;56.69
75705;DHT22;70013;44.726;37.760;2023-06-22T01:24:30;24.38;56.81
75705;DHT22;70013;44.726;37.760;2023-06-22T01:27:16;24.34;56.77
75705;DHT22;70013;44.726;37.760;2023-06-22T01:29:38;24.34;56.44
75705;DHT22;70013;44.726;37.760;2023-06-22T01:30:41;24.35;56.60
75705;DHT22;70013;44.726;37.760;2023-06-22T01:31:42;24.31;56.92
75705;DHT22;70013;44.726;37.760;2023-06-22T01:32:46;24.33;56.75
75705;DHT22;70013;44.726;37.760;2023-06-22T01:33:50;24.32;56.68
75705;DHT22;70013;44.726;37.760;2023-06-22T01:34:51;24.32;56.55
75705;DHT22;70013;44.726;37.760;2023-06-22T01:35:52;24.32;56.56
75705;DHT22;70013;44.726;37.760;2023-06-22T01:36:54;24.33;56.59
75705;DHT22;70013;44.726;37.760;2023-06-22T01:37:55;24.34;56.49
75705;DHT22;70013;44.726;37.760;2023-06-22T01:38:57;24.34;56.63
75705;DHT22;70013;44.726;37.760;2023-06-22T01:39:58;24.33;56.61
75705;DHT22;70013;44.726;37.760;2023-06-22T01:41:00;24.32;56.54
75705;DHT22;70013;44.726;37.760;2023-06-22T01:42:02;24.34;56.59
75705;DHT22;70013;44.726;37.760;2023-06-22T01:43:03;24.32;56.49
75705;DHT22;70013;44.726;37.760;2023-06-22T01:44:07;24.31;56.59
75705;DHT22;70013;44.726;37.760;2023-06-22T01:45:10;24.29;56.77
75705;DHT22;70013;44.726;37.760;2023-06-22T01:46:12;24.31;56.65
75705;DHT22;70013;44.726;37.760;2023-06-22T01:47:14;24.31;56.71
75705;DHT22;70013;44.726;37.760;2023-06-22T01:48:15;24.31;56.32
75705;DHT22;70013;44.726;37.760;2023-06-22T01:49:16;24.32;56.59
75705;DHT22;70013;44.726;37.760;2023-06-22T01:50:18;24.32;56.88
75705;DHT22;70013;44.726;37.760;2023-06-22T01:51:19;24.33;56.65
75705;DHT22;70013;44.726;37.760;2023-06-22T01:52:21;24.32;56.64
75705;DHT22;70013;44.726;37.760;2023-06-22T01:53:22;24.33;56.54
75705;DHT22;70013;44.726;37.760;2023-06-22T01:54:26;24.33;56.70
75705;DHT22;70013;44.726;37.760;2023-06-22T01:55:27;24.33;57.05
75705;DHT22;70013;44.726;37.760;2023-06-22T01:56:28;24.33;56.81
75705;DHT22;70013;44.726;37.760;2023-06-22T01:57:30;24.35;56.77
75705;DHT22;70013;44.726;37.760;2023-06-22T01:58:31;24.33;56.83
75705;DHT22;70013;44.726;37.760;2023-06-22T01:59:34;24.33;56.71
75705;DHT22;70013;44.726;37.760;2023-06-22T02:00:38;24.34;56.42
75705;DHT22;70013;44.726;37.760;2023-06-22T02:01:42;24.34;56.67
75705;DHT22;70013;44.726;37.760;2023-06-22T02:02:58;24.35;56.55
75705;DHT22;70013;44.726;37.760;2023-06-22T02:04:05;24.35;56.48
75705;DHT22;70013;44.726;37.760;2023-06-22T02:05:07;24.36;56.57
75705;DHT22;70013;44.726;37.760;2023-06-22T02:06:16;24.34;56.55
75705;DHT22;70013;44.726;37.760;2023-06-22T02:07:20;24.35;57.26
75705;DHT22;70013;44.726;37.760;2023-06-22T02:08:25;24.34;56.82
75705;DHT22;70013;44.726;37.760;2023-06-22T02:09:28;24.36;56.78
75705;DHT22;70013;44.726;37.760;2023-06-22T02:10:31;24.39;56.81
75705;DHT22;70013;44.726;37.760;2023-06-22T02:11:32;24.35;56.84
75705;DHT22;70013;44.726;37.760;2023-06-22T02:12:34;24.36;56.86
75705;DHT22;70013;44.726;37.760;2023-06-22T02:13:37;24.36;56.41
75705;DHT22;70013;44.726;37.760;2023-06-22T02:14:39;24.36;56.88
75705;DHT22;70013;44.726;37.760;2023-06-22T02:15:41;24.39;56.52
75705;DHT22;70013;44.726;37.760;2023-06-22T02:16:42;24.39;56.42
75705;DHT22;70013;44.726;37.760;2023-06-22T02:17:44;24.41;56.40
75705;DHT22;70013;44.726;37.760;2023-06-22T02:18:46;24.41;56.48
75705;DHT22;70013;44.726;37.760;2023-06-22T02:19:48;24.41;56.42
75705;DHT22;70013;44.726;37.760;2023-06-22T02:20:49;24.43;56.34
75705;DHT22;70013;44.726;37.760;2023-06-22T02:21:50;24.45;56.00
75705;DHT22;70013;44.726;37.760;2023-06-22T02:22:51;24.47;55.90
75705;DHT22;70013;44.726;37.760;2023-06-22T02:23:54;24.49;55.68
75705;DHT22;70013;44.726;37.760;2023-06-22T02:24:56;24.51;55.79
75705;DHT22;70013;44.726;37.760;2023-06-22T02:26:00;24.54;55.77
75705;DHT22;70013;44.726;37.760;2023-06-22T02:27:03;24.55;55.61
75705;DHT22;70013;44.726;37.760;2023-06-22T02:28:07;24.57;55.78
75705;DHT22;70013;44.726;37.760;2023-06-22T02:29:08;24.56;56.12
75705;DHT22;70013;44.726;37.760;2023-06-22T02:30:09;24.57;55.81
75705;DHT22;70013;44.726;37.760;2023-06-22T02:31:13;24.60;55.71
75705;DHT22;70013;44.726;37.760;2023-06-22T02:32:14;24.62;55.01
75705;DHT22;70013;44.726;37.760;2023-06-22T02:33:21;24.65;55.86
75705;DHT22;70013;44.726;37.760;2023-06-22T02:34:22;24.65;55.75
75705;DHT22;70013;44.726;37.760;2023-06-22T02:35:26;24.71;55.49
75705;DHT22;70013;44.726;37.760;2023-06-22T02:36:27;24.75;55.36
75705;DHT22;70013;44.726;37.760;2023-06-22T02:37:31;24.79;55.36
75705;DHT22;70013;44.726;37.760;2023-06-22T02:38:37;24.82;55.39
75705;DHT22;70013;44.726;37.760;2023-06-22T02:39:38;24.83;55.84
75705;DHT22;70013;44.726;37.760;2023-06-22T02:40:40;24.83;55.93
75705;DHT22;70013;44.726;37.760;2023-06-22T02:41:41;24.86;55.45
75705;DHT22;70013;44.726;37.760;2023-06-22T02:42:42;24.87;55.58
75705;DHT22;70013;44.726;37.760;2023-06-22T02:43:46;24.89;55.77
75705;DHT22;70013;44.726;37.760;2023-06-22T02:44:48;24.90;55.36
75705;DHT22;70013;44.726;37.760;2023-06-22T02:45:49;24.93;55.24
75705;DHT22;70013;44.726;37.760;2023-06-22T02:46:51;24.98;55.09
75705;DHT22;70013;44.726;37.760;2023-06-22T02:47:52;25.01;55.08
75705;DHT22;70013;44.726;37.760;2023-06-22T02:48:53;25.04;55.25
75705;DHT22;70013;44.726;37.760;2023-06-22T02:49:55;25.07;54.98
75705;DHT22;70013;44.726;37.760;2023-06-22T02:50:56;25.06;55.63
75705;DHT22;70013;44.726;37.760;2023-06-22T02:51:58;25.08;55.00
75705;DHT22;70013;44.726;37.760;2023-06-22T02:52:59;25.15;55.38
75705;DHT22;70013;44.726;37.760;2023-06-22T02:54:03;25.19;54.68
75705;DHT22;70013;44.726;37.760;2023-06-22T02:55:05;25.20;54.50
75705;DHT22;70013;44.726;37.760;2023-06-22T02:56:06;25.24;54.75
75705;DHT22;70013;44.726;37.760;2023-06-22T02:57:11;25.18;55.15
75705;DHT22;70013;44.726;37.760;2023-06-22T02:58:15;25.21;54.55
75705;DHT22;70013;44.726;37.760;2023-06-22T02:59:18;25.21;54.16
75705;DHT22;70013;44.726;37.760;2023-06-22T03:00:25;25.28;53.77
75705;DHT22;70013;44.726;37.760;2023-06-22T03:01:31;25.35;53.82
75705;DHT22;70013;44.726;37.760;2023-06-22T03:02:39;25.42;53.20
75705;DHT22;70013;44.726;37.760;2023-06-22T03:03:40;25.48;53.33
75705;DHT22;70013;44.726;37.760;2023-06-22T03:04:41;25.51;53.00
75705;DHT22;70013;44.726;37.760;2023-06-22T03:05:44;25.59;52.73
75705;DHT22;70013;44.726;37.760;2023-06-22T03:06:45;25.65;52.88
75705;DHT22;70013;44.726;37.760;2023-06-22T03:07:51;25.65;52.40
75705;DHT22;70013;44.726;37.760;2023-06-22T03:08:53;25.74;52.14
75705;DHT22;70013;44.726;37.760;2023-06-22T03:09:54;25.82;51.78
75705;DHT22;70013;44.726;37.760;2023-06-22T03:10:55;25.91;51.48
75705;DHT22;70013;44.726;37.760;2023-06-22T03:11:56;25.93;51.69
75705;DHT22;70013;44.726;37.760;2023-06-22T03:13:01;26.01;51.29
75705;DHT22;70013;44.726;37.760;2023-06-22T03:14:02;26.03;51.33
75705;DHT22;70013;44.726;37.760;2023-06-22T03:15:05;26.13;51.09
75705;DHT22;70013;44.726;37.760;2023-06-22T03:16:07;26.25;50.72
75705;DHT22;70013;44.726;37.760;2023-06-22T03:17:09;26.34;50.35
75705;DHT22;70013;44.726;37.760;2023-06-22T03:18:12;26.37;50.39
75705;DHT22;70013;44.726;37.760;2023-06-22T03:19:13;26.42;50.24
75705;DHT22;70013;44.726;37.760;2023-06-22T03:20:15;26.48;50.11
75705;DHT22;70013;44.726;37.760;2023-06-22T03:21:16;26.53;50.07
75705;DHT22;70013;44.726;37.760;2023-06-22T03:22:18;26.57;50.01
75705;DHT22;70013;44.726;37.760;2023-06-22T03:23:19;26.67;49.53
75705;DHT22;70013;44.726;37.760;2023-06-22T03:24:21;26.72;49.59
75705;DHT22;70013;44.726;37.760;2023-06-22T03:25:22;26.79;49.39
75705;DHT22;70013;44.726;37.760;2023-06-22T03:26:24;26.85;49.34
75705;DHT22;70013;44.726;37.760;2023-06-22T03:27:27;26.93;49.08
75705;DHT22;70013;44.726;37.760;2023-06-22T03:28:29;26.99;48.60
75705;DHT22;70013;44.726;37.760;2023-06-22T03:29:30;27.06;48.02
75705;DHT22;70013;44.726;37.760;2023-06-22T03:30:32;27.11;47.68
75705;DHT22;70013;44.726;37.760;2023-06-22T03:31:35;27.15;47.67
75705;DHT22;70013;44.726;37.760;2023-06-22T03:32:37;27.25;47.49
75705;DHT22;70013;44.726;37.760;2023-06-22T03:33:40;27.36;46.98
75705;DHT22;70013;44.726;37.760;2023-06-22T03:34:42;27.50;46.70
75705;DHT22;70013;44.726;37.760;2023-06-22T03:35:48;27.63;46.43
75705;DHT22;70013;44.726;37.760;2023-06-22T03:36:51;27.74;46.09
75705;DHT22;70013;44.726;37.760;2023-06-22T03:37:52;27.83;45.76
75705;DHT22;70013;44.726;37.760;2023-06-22T03:38:55;27.95;45.59
75705;DHT22;70013;44.726;37.760;2023-06-22T03:39:56;28.03;45.32
75705;DHT22;70013;44.726;37.760;2023-06-22T03:40:58;28.16;44.90
75705;DHT22;70013;44.726;37.760;2023-06-22T03:42:00;28.31;44.73
75705;DHT22;70013;44.726;37.760;2023-06-22T03:43:02;28.41;44.34
75705;DHT22;70013;44.726;37.760;2023-06-22T03:44:04;28.47;44.04
75705;DHT22;70013;44.726;37.760;2023-06-22T03:45:06;28.60;43.74
75705;DHT22;70013;44.726;37.760;2023-06-22T03:46:08;28.72;43.29
75705;DHT22;70013;44.726;37.760;2023-06-22T03:47:10;28.82;42.91
75705;DHT22;70013;44.726;37.760;2023-06-22T03:48:12;28.92;42.75
75705;DHT22;70013;44.726;37.760;2023-06-22T03:49:13;29.05;42.29
75705;DHT22;70013;44.726;37.760;2023-06-22T03:50:15;29.15;42.19
75705;DHT22;70013;44.726;37.760;2023-06-22T03:51:16;29.29;41.26
75705;DHT22;70013;44.726;37.760;2023-06-22T03:52:18;29.35;40.95
75705;DHT22;70013;44.726;37.760;2023-06-22T03:53:19;29.47;40.91
75705;DHT22;70013;44.726;37.760;2023-06-22T03:54:20;29.62;40.74
75705;DHT22;70013;44.726;37.760;2023-06-22T03:55:22;29.73;40.41
75705;DHT22;70013;44.726;37.760;2023-06-22T03:56:23;29.83;40.36
75705;DHT22;70013;44.726;37.760;2023-06-22T03:57:25;29.97;40.11
75705;DHT22;70013;44.726;37.760;2023-06-22T03:58:26;30.10;40.08
75705;DHT22;70013;44.726;37.760;2023-06-22T03:59:29;30.25;39.27
75705;DHT22;70013;44.726;37.760;2023-06-22T04:00:31;30.34;38.85
75705;DHT22;70013;44.726;37.760;2023-06-22T04:01:33;30.47;38.82
75705;DHT22;70013;44.726;37.760;2023-06-22T04:02:34;30.60;37.99
75705;DHT22;70013;44.726;37.760;2023-06-22T04:03:36;30.74;38.38
75705;DHT22;70013;44.726;37.760;2023-06-22T04:04:37;30.90;37.98
75705;DHT22;70013;44.726;37.760;2023-06-22T04:05:40;31.02;37.88
75705;DHT22;70013;44.726;37.760;2023-06-22T04:06:41;31.14;37.37
75705;DHT22;70013;44.726;37.760;2023-06-22T04:07:43;31.31;36.66
75705;DHT22;70013;44.726;37.760;2023-06-22T04:08:45;31.48;35.89
75705;DHT22;70013;44.726;37.760;2023-06-22T04:09:49;31.71;35.60
75705;DHT22;70013;44.726;37.760;2023-06-22T04:10:50;31.94;35.08
75705;DHT22;70013;44.726;37.760;2023-06-22T04:11:52;32.25;34.21
75705;DHT22;70013;44.726;37.760;2023-06-22T04:12:53;32.55;33.91
75705;DHT22;70013;44.726;37.760;2023-06-22T04:13:55;32.86;32.87
75705;DHT22;70013;44.726;37.760;2023-06-22T04:14:56;33.26;31.11
75705;DHT22;70013;44.726;37.760;2023-06-22T04:15:58;33.67;30.83
75705;DHT22;70013;44.726;37.760;2023-06-22T04:16:59;33.96;30.33
75705;DHT22;70013;44.726;37.760;2023-06-22T04:18:01;34.40;29.99
75705;DHT22;70013;44.726;37.760;2023-06-22T04:19:02;34.84;28.84
75705;DHT22;70013;44.726;37.760;2023-06-22T04:20:04;35.16;28.78
75705;DHT22;70013;44.726;37.760;2023-06-22T04:21:06;35.58;28.00
75705;DHT22;70013;44.726;37.760;2023-06-22T04:22:07;35.90;27.37
75705;DHT22;70013;44.726;37.760;2023-06-22T04:23:09;36.29;26.45
75705;DHT22;70013;44.726;37.760;2023-06-22T04:24:10;36.58;25.65
75705;DHT22;70013;44.726;37.760;2023-06-22T04:25:12;36.84;24.91
75705;DHT22;70013;44.726;37.760;2023-06-22T04:26:14;37.07;24.34
75705;DHT22;70013;44.726;37.760;2023-06-22T04:27:15;37.28;24.33
75705;DHT22;70013;44.726;37.760;2023-06-22T04:28:18;37.58;23.94
75705;DHT22;70013;44.726;37.760;2023-06-22T04:29:19;37.84;23.40
75705;DHT22;70013;44.726;37.760;2023-06-22T04:30:21;38.00;23.24
75705;DHT22;70013;44.726;37.760;2023-06-22T04:31:23;38.35;22.70
75705;DHT22;70013;44.726;37.760;2023-06-22T04:32:33;38.59;22.32
75705;DHT22;70013;44.726;37.760;2023-06-22T04:33:34;38.65;21.86
75705;DHT22;70013;44.726;37.760;2023-06-22T04:34:36;38.88;21.66
75705;DHT22;70013;44.726;37.760;2023-06-22T04:35:39;39.12;21.52
75705;DHT22;70013;44.726;37.760;2023-06-22T04:36:42;39.37;20.94
75705;DHT22;70013;44.726;37.760;2023-06-22T04:37:43;39.61;21.28
75705;DHT22;70013;44.726;37.760;2023-06-22T04:38:49;39.77;20.70
75705;DHT22;70013;44.726;37.760;2023-06-22T04:39:53;39.99;20.00
75705;DHT22;70013;44.726;37.760;2023-06-22T04:40:55;40.11;20.00
75705;DHT22;70013;44.726;37.760;2023-06-22T04:41:57;40.25;20.00
75705;DHT22;70013;44.726;37.760;2023-06-22T04:43:01;40.48;19.55
75705;DHT22;70013;44.726;37.760;2023-06-22T04:44:03;40.53;20.68
75705;DHT22;70013;44.726;37.760;2023-06-22T04:45:06;40.77;19.02
75705;DHT22;70013;44.726;37.760;2023-06-22T04:46:07;40.92;18.91
75705;DHT22;70013;44.726;37.760;2023-06-22T04:47:09;41.04;18.66
75705;DHT22;70013;44.726;37.760;2023-06-22T04:48:10;41.26;18.77
75705;DHT22;70013;44.726;37.760;2023-06-22T04:49:17;41.49;18.17
75705;DHT22;70013;44.726;37.760;2023-06-22T04:50:18;41.77;18.26
75705;DHT22;70013;44.726;37.760;2023-06-22T04:51:22;42.13;16.78
75705;DHT22;70013;44.726;37.760;2023-06-22T04:52:23;42.34;17.30
75705;DHT22;70013;44.726;37.760;2023-06-22T04:53:25;42.55;17.21
75705;DHT22;70013;44.726;37.760;2023-06-22T04:54:30;42.68;16.48
75705;DHT22;70013;44.726;37.760;2023-06-22T04:55:35;42.92;16.69
75705;DHT22;70013;44.726;37.760;2023-06-22T04:56:38;43.10;16.36
75705;DHT22;70013;44.726;37.760;2023-06-22T04:57:41;43.38;15.93
75705;DHT22;70013;44.726;37.760;2023-06-22T04:58:45;43.42;15.61
75705;DHT22;70013;44.726;37.760;2023-06-22T04:59:47;43.54;15.36
75705;DHT22;70013;44.726;37.760;2023-06-22T05:00:48;43.74;15.19
75705;DHT22;70013;44.726;37.760;2023-06-22T05:01:53;43.85;14.94
75705;DHT22;70013;44.726;37.760;2023-06-22T05:02:54;44.12;14.71
75705;DHT22;70013;44.726;37.760;2023-06-22T05:03:58;44.26;14.58
75705;DHT22;70013;44.726;37.760;2023-06-22T05:05:02;44.37;14.23
75705;DHT22;70013;44.726;37.760;2023-06-22T05:06:07;44.62;15.13
75705;DHT22;70013;44.726;37.760;2023-06-22T05:07:09;44.84;13.87
75705;DHT22;70013;44.726;37.760;2023-06-22T05:08:11;44.86;14.16
75705;DHT22;70013;44.726;37.760;2023-06-22T05:09:13;45.05;13.61
75705;DHT22;70013;44.726;37.760;2023-06-22T05:10:14;45.30;13.26
75705;DHT22;70013;44.726;37.760;2023-06-22T05:11:16;45.45;13.08
75705;DHT22;70013;44.726;37.760;2023-06-22T05:12:17;45.47;13.13
75705;DHT22;70013;44.726;37.760;2023-06-22T05:13:19;45.77;13.24
75705;DHT22;70013;44.726;37.760;2023-06-22T05:14:22;45.96;12.66
75705;DHT22;70013;44.726;37.760;2023-06-22T05:15:24;46.27;12.03
75705;DHT22;70013;44.726;37.760;2023-06-22T05:16:29;46.50;12.00
75705;DHT22;70013;44.726;37.760;2023-06-22T05:17:30;46.68;11.30
75705;DHT22;70013;44.726;37.760;2023-06-22T05:18:32;46.86;11.43
75705;DHT22;70013;44.726;37.760;2023-06-22T05:19:33;47.04;11.28
75705;DHT22;70013;44.726;37.760;2023-06-22T05:20:35;47.23;11.04
75705;DHT22;70013;44.726;37.760;2023-06-22T05:21:37;47.35;10.22
75705;DHT22;70013;44.726;37.760;2023-06-22T05:22:39;47.42;11.20
75705;DHT22;70013;44.726;37.760;2023-06-22T05:23:41;47.64;10.60
75705;DHT22;70013;44.726;37.760;2023-06-22T05:24:42;47.81;10.39
75705;DHT22;70013;44.726;37.760;2023-06-22T05:25:44;48.09;9.34
75705;DHT22;70013;44.726;37.760;2023-06-22T05:26:45;47.81;9.50
75705;DHT22;70013;44.726;37.760;2023-06-22T05:27:47;48.02;9.66
75705;DHT22;70013;44.726;37.760;2023-06-22T05:28:48;48.14;9.69
75705;DHT22;70013;44.726;37.760;2023-06-22T05:29:50;48.30;9.90
75705;DHT22;70013;44.726;37.760;2023-06-22T05:30:51;48.34;9.75
75705;DHT22;70013;44.726;37.760;2023-06-22T05:31:52;48.65;9.45
75705;DHT22;70013;44.726;37.760;2023-06-22T05:32:54;48.89;9.46
75705;DHT22;70013;44.726;37.760;2023-06-22T05:33:55;49.16;9.16
75705;DHT22;70013;44.726;37.760;2023-06-22T05:34:57;49.33;8.88
75705;DHT22;70013;44.726;37.760;2023-06-22T05:35:59;49.36;8.51
75705;DHT22;70013;44.726;37.760;2023-06-22T05:37:02;49.53;8.18
75705;DHT22;70013;44.726;37.760;2023-06-22T05:38:04;49.73;8.10
75705;DHT22;70013;44.726;37.760;2023-06-22T05:39:12;49.84;8.20
75705;DHT22;70013;44.726;37.760;2023-06-22T05:40:14;49.84;8.39
75705;DHT22;70013;44.726;37.760;2023-06-22T05:41:16;50.12;7.78
75705;DHT22;70013;44.726;37.760;2023-06-22T05:42:17;50.28;8.24
75705;DHT22;70013;44.726;37.760;2023-06-22T05:43:19;50.18;8.35
75705;DHT22;70013;44.726;37.760;2023-06-22T05:44:20;50.42;7.83
75705;DHT22;70013;44.726;37.760;2023-06-22T05:45:21;50.36;7.21
75705;DHT22;70013;44.726;37.760;2023-06-22T05:46:23;50.37;7.15
75705;DHT22;70013;44.726;37.760;2023-06-22T05:47:25;50.33;7.28
75705;DHT22;70013;44.726;37.760;2023-06-22T05:48:26;50.42;6.87
75705;DHT22;70013;44.726;37.760;2023-06-22T05:49:28;50.51;7.15
75705;DHT22;70013;44.726;37.760;2023-06-22T05:50:33;50.41;6.99
75705;DHT22;70013;44.726;37.760;2023-06-22T05:51:35;50.35;7.62
75705;DHT22;70013;44.726;37.760;2023-06-22T05:52:36;50.44;7.47
75705;DHT22;70013;44.726;37.760;2023-06-22T05:53:37;50.33;7.53
75705;DHT22;70013;44.726;37.760;2023-06-22T05:54:39;50.28;7.33
75705;DHT22;70013;44.726;37.760;2023-06-22T05:55:42;50.32;7.43
75705;DHT22;70013;44.726;37.760;2023-06-22T05:56:44;50.38;7.47
75705;DHT22;70013;44.726;37.760;2023-06-22T05:57:45;50.50;7.28
75705;DHT22;70013;44.726;37.760;2023-06-22T05:58:47;50.66;8.22
75705;DHT22;70013;44.726;37.760;2023-06-22T05:59:48;50.98;7.70
75705;DHT22;70013;44.726;37.760;2023-06-22T06:00:50;50.97;7.57
75705;DHT22;70013;44.726;37.760;2023-06-22T06:01:51;51.00;7.64
75705;DHT22;70013;44.726;37.760;2023-06-22T06:02:52;51.01;7.30
75705;DHT22;70013;44.726;37.760;2023-06-22T06:03:54;51.03;7.42
75705;DHT22;70013;44.726;37.760;2023-06-22T06:04:55;50.95;7.34
75705;DHT22;70013;44.726;37.760;2023-06-22T06:05:57;50.93;8.27
75705;DHT22;70013;44.726;37.760;2023-06-22T06:06:58;50.93;7.21
75705;DHT22;70013;44.726;37.760;2023-06-22T06:08:00;50.68;7.37
75705;DHT22;70013;44.726;37.760;2023-06-22T06:09:04;50.61;7.59
75705;DHT22;70013;44.726;37.760;2023-06-22T06:10:06;50.64;7.68
75705;DHT22;70013;44.726;37.760;2023-06-22T06:11:07;50.65;7.47
75705;DHT22;70013;44.726;37.760;2023-06-22T06:12:09;50.69;7.41
75705;DHT22;70013;44.726;37.760;2023-06-22T06:13:10;50.56;7.51
75705;DHT22;70013;44.726;37.760;2023-06-22T06:14:12;50.63;8.21
75705;DHT22;70013;44.726;37.760;2023-06-22T06:15:13;50.63;7.88
75705;DHT22;70013;44.726;37.760;2023-06-22T06:16:15;50.63;7.34
75705;DHT22;70013;44.726;37.760;2023-06-22T06:17:16;50.43;8.07
75705;DHT22;70013;44.726;37.760;2023-06-22T06:18:18;50.61;8.21
75705;DHT22;70013;44.726;37.760;2023-06-22T06:19:19;50.82;6.84
75705;DHT22;70013;44.726;37.760;2023-06-22T06:20:21;50.68;6.97
75705;DHT22;70013;44.726;37.760;2023-06-22T06:21:23;50.79;7.65
75705;DHT22;70013;44.726;37.760;2023-06-22T06:22:25;50.84;7.45
75705;DHT22;70013;44.726;37.760;2023-06-22T06:23:26;51.06;7.27
75705;DHT22;70013;44.726;37.760;2023-06-22T06:24:27;50.83;7.20
75705;DHT22;70013;44.726;37.760;2023-06-22T06:25:29;50.86;7.47
75705;DHT22;70013;44.726;37.760;2023-06-22T06:26:30;50.78;7.19
75705;DHT22;70013;44.726;37.760;2023-06-22T06:27:34;50.90;7.56
75705;DHT22;70013;44.726;37.760;2023-06-22T06:28:35;50.84;7.36
75705;DHT22;70013;44.726;37.760;2023-06-22T06:29:37;50.81;7.11
75705;DHT22;70013;44.726;37.760;2023-06-22T06:30:38;50.93;7.72
75705;DHT22;70013;44.726;37.760;2023-06-22T06:31:39;50.92;8.05
75705;DHT22;70013;44.726;37.760;2023-06-22T06:32:41;50.69;8.40
75705;DHT22;70013;44.726;37.760;2023-06-22T06:33:43;50.76;8.93